createdAt,value
2022-08-11T00:03:56.872Z,99.9
2022-08-11T00:08:59.748Z,99.9
2022-08-11T00:14:02.084Z,99.9
2022-08-11T00:19:04.425Z,99.9
2022-08-11T00:24:07.145Z,99.9
2022-08-11T00:29:09.497Z,99.9
2022-08-11T00:34:11.885Z,99.9
2022-08-11T00:39:15.114Z,99.9
2022-08-11T00:44:18.090Z,99.9
2022-08-11T00:49:20.394Z,99.9
2022-08-11T00:54:23.166Z,99.9
2022-08-11T00:59:38.132Z,99.9
2022-08-11T01:04:30.384Z,99.9
2022-08-11T01:09:33.232Z,99.9
2022-08-11T01:14:37.950Z,99.9
2022-08-11T01:20:51.569Z,99.9
2022-08-11T01:24:43.933Z,99.9
2022-08-11T01:29:52.489Z,99.9
2022-08-11T01:34:55.060Z,99.9
2022-08-11T01:39:57.797Z,99.9
2022-08-11T01:45:00.139Z,99.9
2022-08-11T01:50:12.891Z,99.9
2022-08-11T01:55:05.481Z,99.9
2022-08-11T02:00:07.778Z,99.9
2022-08-11T02:05:10.295Z,99.9
2022-08-11T02:10:21.481Z,99.9
2022-08-11T02:15:17.922Z,99.9
2022-08-11T02:20:20.521Z,99.9
2022-08-11T02:25:23.205Z,99.9
2022-08-11T02:30:25.893Z,99.9
2022-08-11T02:35:28.262Z,99.9
2022-08-11T02:40:31.013Z,99.9
2022-08-11T02:45:34.135Z,99.9
2022-08-11T02:50:36.684Z,99.9
2022-08-11T02:56:00.511Z,99.9
2022-08-11T03:00:43.216Z,99.9
2022-08-11T03:05:45.745Z,99.9
2022-08-11T03:10:51.471Z,99.9
2022-08-11T03:15:53.730Z,99.9
2022-08-11T03:20:56.312Z,99.9
2022-08-11T03:25:58.612Z,99.9
2022-08-11T03:31:01.503Z,99.9
2022-08-11T03:36:04.098Z,99.9
2022-08-11T03:42:11.207Z,99.9
2022-08-11T03:46:13.610Z,99.9
2022-08-11T03:51:16.107Z,99.9
2022-08-11T03:56:18.356Z,99.9
2022-08-11T04:01:21.449Z,99.9
2022-08-11T04:06:24.081Z,99.9
2022-08-11T04:11:26.311Z,99.9
2022-08-11T04:16:28.602Z,99.9
2022-08-11T04:21:31.284Z,99.9
2022-08-11T04:26:39.841Z,99.9
2022-08-11T04:31:54.862Z,99.9
2022-08-11T04:36:47.278Z,99.9
2022-08-11T04:41:49.852Z,99.9
2022-08-11T04:46:52.414Z,99.9
2022-08-11T04:51:55.009Z,99.9
2022-08-11T04:56:57.323Z,99.9
2022-08-11T05:02:00.181Z,99.9
2022-08-11T05:07:03.223Z,99.9
2022-08-11T05:12:05.512Z,99.9
2022-08-11T05:17:08.004Z,99.9
2022-08-11T05:22:11.741Z,99.9
2022-08-11T05:27:17.031Z,99.4
2022-08-11T05:32:19.813Z,99.1
2022-08-11T05:37:29.965Z,98.5
2022-08-11T05:42:33.259Z,98.3
2022-08-11T05:47:25.588Z,98.2
2022-08-11T05:52:43.138Z,97.7
2022-08-11T05:57:54.086Z,97
2022-08-11T06:02:36.455Z,97
2022-08-11T06:07:52.563Z,96.2
2022-08-11T06:12:45.113Z,96.1
2022-08-11T06:17:47.471Z,96.1
2022-08-11T06:22:55.590Z,95.7
2022-08-11T06:27:58.841Z,95.7
2022-08-11T06:33:01.426Z,95.5
2022-08-11T06:38:04.059Z,95
2022-08-11T06:43:06.663Z,95
2022-08-11T06:48:09.039Z,94.1
2022-08-11T06:53:11.952Z,94.1
2022-08-11T06:58:15.938Z,93.8
2022-08-11T07:03:18.181Z,93.7
2022-08-11T07:08:38.322Z,92.7
2022-08-11T07:13:48.005Z,93
2022-08-11T07:18:40.477Z,92.9
2022-08-11T07:23:44.268Z,91.9
2022-08-11T07:28:46.869Z,91.9
2022-08-11T07:34:18.508Z,91.4
2022-08-11T07:38:51.458Z,91.5
2022-08-11T07:43:54.172Z,90.7
2022-08-11T07:48:56.539Z,90.7
2022-08-11T07:54:20.218Z,90.2
2022-08-11T07:59:11.312Z,90
2022-08-11T08:04:06.308Z,89.5
2022-08-11T08:09:08.887Z,90
2022-08-11T08:14:11.172Z,88.3
2022-08-11T08:19:14.014Z,86
2022-08-11T08:24:16.302Z,86
2022-08-11T08:29:18.593Z,86
2022-08-11T08:34:21.473Z,85.7
2022-08-11T08:39:24.385Z,84
2022-08-11T08:44:47.370Z,83.5
2022-08-11T08:49:30.062Z,82.8
2022-08-11T08:54:32.384Z,83
2022-08-11T08:59:54.866Z,81.5
2022-08-11T09:04:37.118Z,81.3
2022-08-11T09:09:40.058Z,79.4
2022-08-11T09:19:58.759Z,76.8
2022-08-11T09:24:51.615Z,77.1
2022-08-11T09:29:53.867Z,76.9
2022-08-11T09:34:56.984Z,74.9
2022-08-11T09:39:59.725Z,74.2
2022-08-11T09:45:05.115Z,72.2
2022-08-11T09:50:07.342Z,72
2022-08-11T09:55:09.640Z,72.5
2022-08-11T10:00:16.582Z,70.3
2022-08-11T10:05:19.068Z,70.3
2022-08-11T10:10:21.454Z,68.5
2022-08-11T10:15:23.943Z,67.4
2022-08-11T10:20:28.812Z,65.9
2022-08-11T10:25:31.429Z,66.4
2022-08-11T10:30:33.896Z,66.4
2022-08-11T10:35:38.302Z,64.7
2022-08-11T10:40:40.633Z,64.9
2022-08-11T10:45:42.921Z,64.6
2022-08-11T10:50:45.471Z,61.5
2022-08-11T10:55:48.542Z,63.1
2022-08-11T11:00:51.258Z,61.9
2022-08-11T11:06:32.382Z,61.6
2022-08-11T11:10:54.677Z,61.4
2022-08-11T11:15:57.333Z,65
2022-08-11T11:21:01.077Z,62.8
2022-08-11T11:26:03.740Z,63.2
2022-08-11T11:31:06.073Z,63.1
2022-08-11T11:36:08.321Z,63.9
2022-08-11T11:41:10.867Z,61.2
2022-08-11T11:46:13.505Z,61.3
2022-08-11T11:51:15.804Z,64.4
2022-08-11T11:56:18.435Z,65.1
2022-08-11T12:02:15.190Z,68.5
2022-08-11T12:07:08.990Z,67.6
2022-08-11T12:12:11.346Z,66.9
2022-08-11T12:17:13.654Z,66.6
2022-08-11T12:22:15.964Z,66.8
2022-08-11T12:27:25.859Z,66.9
2022-08-11T12:32:18.724Z,67.2
2022-08-11T12:37:21.512Z,67.1
2022-08-11T12:42:27.758Z,67.4
2022-08-11T12:47:31.054Z,70
2022-08-11T12:52:33.341Z,69.9
2022-08-11T12:57:41.115Z,69.7
2022-08-11T13:02:47.252Z,68.7
2022-08-11T13:07:54.411Z,68.1
2022-08-11T13:12:56.963Z,67.9
2022-08-11T13:17:59.485Z,66.5
2022-08-11T13:23:02.138Z,70.3
2022-08-11T13:28:04.705Z,70.3
2022-08-11T13:33:07.413Z,70.7
2022-08-11T13:38:31.010Z,71.3
2022-08-11T13:43:13.482Z,71.8
2022-08-11T13:48:16.167Z,72.6
2022-08-11T13:53:18.733Z,73.5
2022-08-11T13:58:53.913Z,74.5
2022-08-11T14:04:32.154Z,73.9
2022-08-11T14:08:48.323Z,74.2
2022-08-11T14:13:50.384Z,73.1
2022-08-11T14:18:43.345Z,74.3
2022-08-11T14:23:46.044Z,74.1
2022-08-11T14:28:49.851Z,73.4
2022-08-11T14:34:04.388Z,73.9
2022-08-11T14:38:57.357Z,73.6
2022-08-11T14:44:17.023Z,75
2022-08-11T14:49:09.602Z,75.3
2022-08-11T14:54:12.364Z,75.9
2022-08-11T14:59:15.291Z,75.7
2022-08-11T15:04:39.624Z,77
2022-08-11T15:09:22.279Z,77.1
2022-08-11T15:14:24.916Z,77.3
2022-08-11T15:19:27.490Z,78.1
2022-08-11T15:24:33.789Z,78
2022-08-11T15:29:36.414Z,78.4
2022-08-11T15:34:38.936Z,77.9
2022-08-11T15:39:41.797Z,78.8
2022-08-11T15:45:06.529Z,79.2
2022-08-11T15:50:16.421Z,79.5
2022-08-11T15:54:59.164Z,80
2022-08-11T16:00:01.959Z,80.1
2022-08-11T16:05:04.633Z,80.4
2022-08-11T16:10:17.216Z,80.5
2022-08-11T16:15:11.944Z,80.9
2022-08-11T16:20:14.352Z,80.9
2022-08-11T16:27:17.248Z,81
2022-08-11T16:30:22.654Z,81.9
2022-08-11T16:35:25.198Z,82.2
2022-08-11T16:40:27.998Z,81.6
2022-08-11T16:45:30.527Z,81.5
2022-08-11T16:50:32.882Z,81.6
2022-08-11T16:56:01.186Z,82.5
2022-08-11T17:00:44.235Z,83.2
2022-08-11T17:05:58.089Z,83
2022-08-11T17:11:04.686Z,83.9
2022-08-11T17:15:57.043Z,83.9
2022-08-11T17:20:59.852Z,84.9
2022-08-11T17:26:07.512Z,85.9
2022-08-11T17:31:25.237Z,86.8
2022-08-11T17:36:17.874Z,86.4
2022-08-11T17:41:26.218Z,87.2
2022-08-11T17:46:28.496Z,87.1
2022-08-11T17:51:31.027Z,88
2022-08-11T17:56:33.669Z,88.8
2022-08-11T18:01:36.872Z,90.2
2022-08-11T18:06:43.637Z,91.1
2022-08-11T18:12:15.302Z,92.1
2022-08-11T18:16:48.168Z,92.7
2022-08-11T18:22:18.147Z,93.2
2022-08-11T18:27:00.853Z,93.6
2022-08-11T18:32:06.262Z,93.8
2022-08-11T18:37:08.570Z,93.8
2022-08-11T18:42:28.965Z,94.4
2022-08-11T18:47:34.061Z,94.4
2022-08-11T18:52:29.028Z,94.4
2022-08-11T18:57:55.090Z,94.8
2022-08-11T19:02:52.846Z,94.9
2022-08-11T19:07:45.662Z,95
2022-08-11T19:12:49.764Z,95.2
2022-08-11T19:17:52.352Z,95.6
2022-08-11T19:22:54.902Z,95.6
2022-08-11T19:27:57.839Z,95.5
2022-08-11T19:33:00.144Z,95.5
2022-08-11T19:38:03.305Z,96.2
2022-08-11T19:43:27.156Z,96.5
2022-08-11T19:48:34.674Z,96.5
2022-08-11T19:53:20.382Z,96.7
2022-08-11T19:58:22.756Z,96.7
2022-08-11T20:03:25.341Z,96.8
2022-08-11T20:08:27.663Z,97.6
2022-08-11T20:13:31.095Z,97.3
2022-08-11T20:18:34.051Z,97.2
2022-08-11T20:23:36.745Z,97.1
2022-08-11T20:28:39.823Z,97
2022-08-11T20:33:42.159Z,97.5
2022-08-11T20:38:44.804Z,98.1
2022-08-11T20:44:11.631Z,98.1
2022-08-11T20:48:54.804Z,98.1
2022-08-11T20:53:58.194Z,98
2022-08-11T20:59:57.178Z,98.1
2022-08-11T21:04:13.206Z,98.1
2022-08-11T21:09:25.163Z,98.1
2022-08-11T21:14:26.778Z,98.1
2022-08-11T21:20:21.270Z,98
2022-08-11T21:24:34.511Z,97.9
2022-08-11T21:29:37.179Z,98
2022-08-11T21:34:41.029Z,97.9
2022-08-11T21:39:44.492Z,98
2022-08-11T21:44:47.136Z,98.2
2022-08-11T21:49:49.769Z,98.4
2022-08-11T21:54:52.056Z,98.4
2022-08-11T21:59:54.623Z,98.6
2022-08-11T22:04:57.259Z,98.7
2022-08-11T22:09:59.687Z,98.7
2022-08-11T22:15:01.980Z,98.8
2022-08-11T22:20:04.560Z,99
2022-08-11T22:25:21.555Z,99.3
2022-08-11T22:30:15.454Z,99.3
2022-08-11T22:35:18.202Z,99.7
2022-08-11T22:40:21.090Z,99.8
2022-08-11T22:45:23.811Z,99.9
2022-08-11T22:50:26.443Z,99.9
2022-08-11T22:55:28.814Z,99.9
2022-08-11T23:00:33.633Z,99.9
2022-08-11T23:05:36.358Z,99.9
2022-08-11T23:10:38.670Z,99.9
2022-08-11T23:15:45.180Z,99.9
2022-08-11T23:20:59.445Z,99.9
2022-08-11T23:25:53.075Z,99.9
2022-08-11T23:30:56.246Z,99.9
2022-08-11T23:36:07.953Z,99.9
2022-08-11T23:41:00.545Z,99.9
2022-08-11T23:46:04.105Z,99.9
